• Join FlightAware (Why Join?)
  • Login
  • US Flag 
12:28PM EDT


 

Airport Tracker/Info


-or-


 

Live Flight TrackerFlight Track Log ✈ N45NS ✈ 28-Oct-2013 ✈ KBJJ - KISM

Flight Track Log - Related Links

Times and Time Zones

All times are in EDT time to prevent confusion due to time zone crossing. See the N45NS flight status page for this flight to view local times or setup timezone preferences in your user account.

Time Position Orientation Groundspeed Altitude Reporting Facility
EDT Latitude Longitude Course Direction KTS MPH feet Rate Location/Type
07:31AM 40.8672 -81.9231 182° South 199 229 2,300  Level Indianapolis Center
07:32AM 40.7997 -81.9261 182° South 261 300 5,100 2,700 Climbing Indianapolis Center
07:33AM 40.7217 -81.9369 186° South 275 316 7,900 2,520 Climbing Indianapolis Center
07:34AM 40.6275 -81.9389 181° South 284 327 10,800 2,580 Climbing Cleveland Center
07:35AM 40.5592 -81.9442 183° South 291 335 13,200 2,520 Climbing Indianapolis Center
07:36AM 40.4717 -81.9511 183° South 308 354 15,600 2,280 Climbing Indianapolis Center
07:37AM 40.3794 -81.9583 183° South 326 375 17,900 2,580 Climbing Indianapolis Center
07:38AM 40.2703 -81.9653 183° South 333 383 20,900 2,520 Climbing Indianapolis Center
07:39AM 40.1828 -81.9719 183° South 338 389 23,100 2,160 Climbing Indianapolis Center
07:40AM 40.0869 -81.9789 183° South 343 395 25,400 2,100 Climbing Indianapolis Center
07:41AM 39.9914 -81.9850 183° South 343 395 27,500 1,980 Climbing Indianapolis Center
07:42AM 39.8953 -81.9917 183° South 344 396 29,500 1,800 Climbing Indianapolis Center
07:43AM 39.7986 -81.9989 183° South 346 398 31,300 1,740 Climbing Indianapolis Center
07:44AM 39.6983 -82.0056 183° South 349 402 33,100 1,260 Climbing Indianapolis Center
07:46AM 39.5792 -82.0133 183° South 356 410 34,000 780 Climbing Indianapolis Center
07:47AM 39.4706 -82.0197 183° South 385 443 34,800 660 Climbing Indianapolis Center
07:48AM 39.3603 -82.0286 184° South 396 456 35,400 1,080 Climbing Indianapolis Center
07:49AM 39.2514 -82.0353 183° South 391 450 37,100 1,500 Climbing Indianapolis Center
07:50AM 39.1481 -82.0414 183° South 376 433 38,500 1,260 Climbing Indianapolis Center
07:51AM 39.0467 -82.0492 183° South 367 422 39,800 720 Climbing Indianapolis Center
07:52AM 38.9444 -82.0556 183° South 368 423 40,000 60 Climbing Indianapolis Center
07:53AM 38.8358 -82.0619 183° South 386 444 40,000  Level Indianapolis Center
07:54AM 38.7028 -82.0719 183° South 400 460 40,000  Level Indianapolis Center
07:55AM 38.5911 -82.0783 183° South 403 464 40,000  Level Indianapolis Center
07:56AM 38.4808 -82.0867 183° South 400 460 40,000  Level Indianapolis Center
07:57AM 38.3694 -82.0942 183° South 400 460 40,000  Level Indianapolis Center
07:58AM 38.2572 -82.1019 183° South 404 465 40,000  Level Indianapolis Center
07:59AM 38.1442 -82.1092 183° South 405 466 40,000  Level Indianapolis Center
08:00AM 38.0311 -82.1164 183° South 407 468 40,000  Level Indianapolis Center
08:01AM 37.9183 -82.1239 183° South 405 466 40,000  Level Indianapolis Center
08:02AM 37.7919 -82.1319 183° South 410 472 40,000  Level Indianapolis Center
08:03AM 37.6786 -82.1394 183° South 406 467 40,000  Level Indianapolis Center
08:04AM 37.5647 -82.1475 183° South 407 468 40,000  Level Indianapolis Center
08:05AM 37.4319 -82.1553 183° South 407 468 40,000  Level Indianapolis Center
08:06AM 37.3178 -82.1628 183° South 409 471 40,000  Level Indianapolis Center
08:07AM 37.2042 -82.1703 183° South 408 470 40,000  Level Indianapolis Center
08:08AM 37.0894 -82.1775 183° South 408 470 40,000  Level Indianapolis Center
08:09AM 36.9747 -82.1847 183° South 409 471 40,000  Level Indianapolis Center
08:10AM 36.8600 -82.1917 183° South 409 471 40,000  Level Indianapolis Center
08:11AM 36.7453 -82.1997 183° South 409 471 40,000  Level Indianapolis Center
08:12AM 36.6300 -82.2058 182° South 410 472 40,000  Level Indianapolis Center
08:13AM 36.5494 -82.2117 183° South 410 472 40,000  Level Atlanta Center
08:14AM 36.4347 -82.2194 183° South 415 478 40,000  Level Atlanta Center
08:15AM 36.3222 -82.2247 182° South 415 478 40,000  Level Atlanta Center
08:16AM 36.2056 -82.2350 184° South 415 478 40,000  Level Atlanta Center
08:17AM 36.0889 -82.2400 182° South 420 483 40,000  Level Atlanta Center
08:18AM 35.9742 -82.2478 183° South 420 483 40,000  Level Atlanta Center
08:19AM 35.8597 -82.2528 182° South 420 483 40,000  Level Atlanta Center
08:20AM 35.7431 -82.2606 183° South 420 483 40,000  Level Atlanta Center
08:21AM 35.6347 -82.2706 184° South 408 470 40,000  Level Atlanta Center
08:22AM 35.5200 -82.2781 183° South 408 470 40,000  Level Atlanta Center
08:23AM 35.4075 -82.2883 184° South 403 464 40,000  Level Atlanta Center
08:24AM 35.2906 -82.2933 182° South 413 475 40,000  Level Atlanta Center
08:25AM 35.1906 -82.3003 183° South 413 475 40,000  Level Atlanta Center
08:26AM 35.0656 -82.3031 181° South 413 475 40,000  Level Atlanta Center
08:27AM 34.9383 -82.3108 183° South 413 475 40,000  Level Atlanta Center
08:28AM 34.8233 -82.2956 174° South 413 475 40,000  Level Atlanta Center
08:29AM 34.7103 -82.2775 173° South 418 481 40,000  Level Atlanta Center
08:30AM 34.5975 -82.2597 173° South 418 481 40,000  Level Atlanta Center
08:31AM 34.4844 -82.2469 175° South 418 481 40,000  Level Atlanta Center
08:32AM 34.3694 -82.2294 173° South 418 481 40,000  Level Atlanta Center
08:33AM 34.2567 -82.2142 174° South 418 481 40,000  Level Atlanta Center
08:34AM 34.1436 -82.1992 174° South 413 475 40,000  Level Atlanta Center
08:35AM 34.0306 -82.1814 173° South 413 475 40,000  Level Atlanta Center
08:36AM 33.9178 -82.1639 173° South 406 467 40,000  Level Atlanta Center
08:37AM 33.8028 -82.1489 174° South 406 467 40,000  Level Atlanta Center
08:38AM 33.7025 -82.1461 179° South 406 467 40,000  Level Atlanta Center
08:39AM 33.5878 -82.1536 183° South 406 467 40,000  Level Atlanta Center
08:40AM 33.4750 -82.1561 181° South 401 461 40,000  Level Atlanta Center
08:41AM 33.3603 -82.1586 181° South 401 461 40,000  Level Atlanta Center
08:42AM 33.2456 -82.1611 181° South 406 467 40,000  Level Atlanta Center
08:43AM 33.1328 -82.1658 182° South 406 467 40,000  Level Atlanta Center
08:45AM 32.8867 -82.1703 181° South 407 468 40,000  Level Jacksonville Center
08:46AM 32.7719 -82.1736 181° South 412 474 40,000  Level Jacksonville Center
08:47AM 32.6572 -82.1769 181° South 417 480 40,000  Level Jacksonville Center
08:48AM 32.5403 -82.1803 181° South 417 480 40,000  Level Jacksonville Center
08:49AM 32.4150 -82.1839 181° South 417 480 40,000  Level Jacksonville Center
08:50AM 32.3128 -82.1869 181° South 422 486 40,000  Level Jacksonville Center
08:51AM 32.1875 -82.1906 181° South 416 479 40,000  Level Jacksonville Center
08:52AM 32.0831 -82.1914 180° South 416 479 40,000  Level Jacksonville Center
08:53AM 31.9558 -82.1922 180° South 421 484 40,000  Level Jacksonville Center
08:54AM 31.8411 -82.1956 181° South 412 474 40,000  Level Jacksonville Center
08:55AM 31.7344 -82.1964 180° South 418 481 40,000  Level Jacksonville Center
08:56AM 31.6239 -82.1997 181° South 412 474 40,000  Level Jacksonville Center
08:57AM 31.5092 -82.2053 182° South 412 474 40,000  Level Jacksonville Center
08:58AM 31.3942 -82.2111 182° South 412 474 40,000  Level Jacksonville Center
08:59AM 31.2814 -82.2094 179° South 412 474 40,000 -180 Level Jacksonville Center
09:00AM 31.1647 -82.2128 181° South 412 474 39,700 -660 Descending Jacksonville Center
09:01AM 31.0456 -82.2161 181° South 423 487 38,700 -1,020 Descending Jacksonville Center
09:02AM 30.9308 -82.2169 180° South 418 481 37,700 -960 Descending Jacksonville Center
09:03AM 30.8200 -82.2200 181° South 411 473 36,800 -960 Descending Jacksonville Center
09:04AM 30.7158 -82.2233 182° South 393 452 35,800 -960 Descending Jacksonville Center
09:05AM 30.6050 -82.2239 180° South 393 452 34,900 -900 Descending Jacksonville Center
09:06AM 30.4797 -82.2200 178° South 398 458 34,000 -480 Descending Jacksonville Center
09:07AM 30.3650 -82.2233 181° South 404 465 34,000 -420 Level Jacksonville Center
09:08AM 30.2461 -82.2289 182° South 416 479 33,200 -960 Descending Jacksonville Center
09:09AM 30.1247 -82.2200 176° South 426 490 32,100 -1,200 Descending Jacksonville Center
09:10AM 30.0058 -82.1994 171° South 431 496 30,900 -1,200 Descending Jacksonville Center
09:11AM 29.8867 -82.1764 170° South 437 503 29,800 -1,140 Descending Jacksonville Center
09:12AM 29.7675 -82.1436 167° South 437 503 28,700 -1,140 Descending Jacksonville Center
09:13AM 29.6461 -82.1089 166° South 442 509 27,600 -1,140 Descending Jacksonville Center
09:14AM 29.5228 -82.0739 166° South 448 516 26,500 -1,860 Descending Jacksonville Center
09:15AM 29.4036 -82.0439 168° South 448 516 23,900 -3,120 Descending Jacksonville Center
09:16AM 29.2886 -82.0164 168° South 442 509 20,300 -3,600 Descending Jacksonville Center
09:17AM 29.1819 -81.9839 165° South 431 496 16,800 -3,300 Descending Jacksonville Center
09:18AM 29.0794 -81.9589 168° South 400 460 13,700 -2,880 Descending Jacksonville Center
09:19AM 28.9875 -81.9358 168° South 365 420 11,100 -1,380 Descending Jacksonville Center
09:20AM 28.9078 -81.8844 151° Southeast 344 396 11,000 -480 Descending Jacksonville Center
09:21AM 28.8500 -81.8333 142° Southeast 344 396 10,300 -1,560 Descending Orlando TRACON
09:22AM 28.7667 -81.7833 152° Southeast 296 341 8,200 -2,040 Descending Orlando TRACON
09:23AM 28.7000 -81.7333 147° Southeast 289 333 6,300 -2,100 Descending Orlando TRACON
09:24AM 28.6500 -81.6833 139° Southeast 274 315 4,300 -1,680 Descending Orlando TRACON
09:25AM 28.5833 -81.6500 156° South 255 293 3,000 -780 Descending Orlando TRACON
09:26AM 28.5167 -81.6000 147° Southeast 258 297 2,700 -480 Descending Orlando TRACON
09:27AM 28.4500 -81.5500 147° Southeast 256 295 2,000 -420 Descending Orlando TRACON
09:28AM 28.4000 -81.5167 150° Southeast 211 243 2,000 -180 Level Orlando TRACON
09:29AM 28.3667 -81.4833 139° Southeast 134 154 1,700 -600 Descending Orlando TRACON
09:30AM 28.3333 -81.4667 156° South 131 151 800 -900 Descending Orlando TRACON
09:32AM 28.2898 -81.4371 204° Southwest  Level Estimated
09:39AM 28.2898 -81.4371 204° Southwest  Level Estimated
09:40AM 28.2898 -81.4371 204° Southwest  Level Estimated
09:41AM 28.2898 -81.4371 204° Southwest  Level Estimated
09:42AM 28.2898 -81.4371 204° Southwest  Level Estimated